Time;durP1;ratioP1;P1;durP2;ratioP2;P2;SDS_P1;SDS_P2;PMS_P1;PMS_P2;Temp;Humidity;BMP_temperature;BMP_pressure;BME280_temperature;BME280_humidity;BME280_pressure;Samples;Min_cycle;Max_cycle;Signal;HPM_P1;HPM_P2
2022/09/13 00:04:26;;;;;;;15.02;13.90;;;;;;;;;;10200365;28;20042;-69
2022/09/13 00:09:22;;;;;;;14.75;13.85;;;;;;;;;;10198456;28;20625;-69
2022/09/13 00:14:18;;;;;;;14.00;13.10;;;;;;;;;;10200727;28;20065;-70
2022/09/13 00:19:14;;;;;;;14.25;13.25;;;;;;;;;;10190938;28;20604;-70
2022/09/13 00:24:10;;;;;;;13.85;12.75;;;;;;;;;;10169730;28;20072;-70
2022/09/13 00:29:07;;;;;;;13.70;12.80;;;;;;;;;;10199271;28;20042;-69
2022/09/13 00:34:03;;;;;;;14.30;13.40;;;;;;;;;;10199766;28;20038;-70
2022/09/13 00:38:59;;;;;;;13.45;12.50;;;;;;;;;;10199464;28;20061;-69
2022/09/13 00:43:57;;;;;;;15.45;14.32;;;;;;;;;;10199468;28;20050;-70
2022/09/13 00:48:58;;;;;;;19.35;18.05;;;;;;;;;;10198451;28;20046;-70
2022/09/13 00:53:55;;;;;;;20.90;19.58;;;;;;;;;;10199653;28;20171;-70
2022/09/13 00:58:53;;;;;;;25.75;24.10;;;;;;;;;;10198622;28;20082;-70
2022/09/13 01:03:49;;;;;;;27.65;25.92;;;;;;;;;;10195155;28;20659;-70
2022/09/13 01:08:48;;;;;;;35.63;33.55;;;;;;;;;;10157303;28;20043;-70
2022/09/13 01:13:44;;;;;;;42.95;40.55;;;;;;;;;;10161488;28;20049;-70
2022/09/13 01:18:40;;;;;;;39.47;37.17;;;;;;;;;;10157432;28;20073;-70
2022/09/13 01:23:56;;;;;;;45.50;42.97;;;;;;;;;;10161771;28;20049;-70
2022/09/13 01:28:55;;;;;;;47.83;44.88;;;;;;;;;;10197174;28;20049;-70
2022/09/13 01:33:57;;;;;;;58.70;55.20;;;;;;;;;;10187113;28;20069;-70
2022/09/13 01:38:58;;;;;;;58.17;55.03;;;;;;;;;;10196332;28;20061;-70
2022/09/13 01:43:57;;;;;;;68.93;65.22;;;;;;;;;;10171842;28;20064;-70
2022/09/13 01:48:56;;;;;;;61.00;57.55;;;;;;;;;;10197033;28;20046;-70
2022/09/13 01:54:04;;;;;;;71.35;67.63;;;;;;;;;;10166941;28;20527;-70
2022/09/13 01:59:19;;;;;;;69.82;65.95;;;;;;;;;;10185281;28;20042;-70
2022/09/13 02:04:20;;;;;;;64.85;61.30;;;;;;;;;;10165851;28;20058;-70
2022/09/13 02:09:19;;;;;;;77.03;72.65;;;;;;;;;;10169947;28;20050;-70
2022/09/13 02:14:21;;;;;;;74.13;70.15;;;;;;;;;;10165827;28;20100;-70
2022/09/13 02:19:25;;;;;;;73.97;69.78;;;;;;;;;;10159065;28;20050;-70
2022/09/13 02:24:25;;;;;;;71.47;67.38;;;;;;;;;;10163898;28;20048;-70
2022/09/13 02:29:23;;;;;;;66.85;63.05;;;;;;;;;;10154896;28;20038;-70
2022/09/13 02:34:26;;;;;;;67.82;64.05;;;;;;;;;;10165667;28;20041;-70
2022/09/13 02:39:24;;;;;;;69.70;65.70;;;;;;;;;;10194710;28;20045;-70
2022/09/13 02:44:23;;;;;;;65.68;62.03;;;;;;;;;;10179642;28;20050;-70
2022/09/13 02:49:32;;;;;;;66.72;62.83;;;;;;;;;;10190361;28;20046;-70
2022/09/13 02:54:44;;;;;;;63.90;60.30;;;;;;;;;;10166161;28;20222;-70
2022/09/13 02:59:40;;;;;;;61.95;58.35;;;;;;;;;;10169424;28;20394;-70
2022/09/13 03:04:36;;;;;;;64.50;60.85;;;;;;;;;;10159827;28;20049;-70
2022/09/13 03:09:33;;;;;;;61.42;57.95;;;;;;;;;;10153991;28;20052;-70
2022/09/13 03:14:32;;;;;;;64.40;60.70;;;;;;;;;;10156866;28;20050;-70
2022/09/13 03:19:39;;;;;;;62.80;59.22;;;;;;;;;;10153638;28;20049;-70
2022/09/13 03:24:50;;;;;;;66.38;62.35;;;;;;;;;;10155744;28;20050;-70
2022/09/13 03:29:54;;;;;;;65.40;61.60;;;;;;;;;;10155963;28;20038;-70
2022/09/13 03:34:50;;;;;;;63.08;59.28;;;;;;;;;;10193383;28;20053;-70
2022/09/13 03:39:51;;;;;;;62.60;59.03;;;;;;;;;;10192739;28;20042;-70
2022/09/13 03:44:49;;;;;;;68.30;64.40;;;;;;;;;;10193021;28;20049;-70
2022/09/13 03:49:45;;;;;;;70.90;66.70;;;;;;;;;;10171845;28;20043;-70
2022/09/13 03:54:41;;;;;;;69.30;65.20;;;;;;;;;;10166106;28;20042;-70
2022/09/13 03:59:40;;;;;;;68.55;64.32;;;;;;;;;;10167484;28;20069;-70
2022/09/13 04:04:40;;;;;;;65.05;61.13;;;;;;;;;;10181222;28;20057;-70
2022/09/13 04:09:37;;;;;;;70.30;66.00;;;;;;;;;;10192266;28;20045;-70
2022/09/13 04:14:33;;;;;;;67.80;63.50;;;;;;;;;;10192424;28;20050;-70
2022/09/13 04:19:30;;;;;;;73.82;69.13;;;;;;;;;;10192927;28;20056;-70
2022/09/13 04:24:27;;;;;;;75.55;70.55;;;;;;;;;;10191872;28;20052;-70
2022/09/13 04:29:24;;;;;;;65.47;60.88;;;;;;;;;;10191388;28;20049;-70
2022/09/13 04:34:21;;;;;;;69.57;64.88;;;;;;;;;;10192007;28;20049;-70
2022/09/13 04:39:19;;;;;;;74.13;69.22;;;;;;;;;;10193748;28;20562;-71
2022/09/13 04:44:15;;;;;;;94.68;88.53;;;;;;;;;;10199758;28;20066;-70
2022/09/13 04:49:13;;;;;;;116.07;108.03;;;;;;;;;;10198706;28;20042;-70
2022/09/13 04:54:10;;;;;;;112.05;104.70;;;;;;;;;;10199011;28;20048;-70
2022/09/13 04:59:10;;;;;;;128.73;119.90;;;;;;;;;;10198218;28;20506;-71
2022/09/13 05:04:08;;;;;;;134.45;125.13;;;;;;;;;;10198706;28;20056;-70
2022/09/13 05:09:04;;;;;;;159.75;148.10;;;;;;;;;;10158901;28;20500;-70
2022/09/13 05:14:01;;;;;;;153.38;142.25;;;;;;;;;;10166576;28;20033;-70
2022/09/13 05:18:57;;;;;;;150.23;138.75;;;;;;;;;;10198021;28;20538;-70
2022/09/13 05:23:54;;;;;;;143.43;132.85;;;;;;;;;;10197767;28;20517;-70
2022/09/13 05:28:51;;;;;;;141.68;130.43;;;;;;;;;;10197818;28;20507;-70
2022/09/13 05:33:51;;;;;;;139.80;128.73;;;;;;;;;;10197297;28;20132;-70
2022/09/13 05:38:47;;;;;;;135.23;124.32;;;;;;;;;;10184851;28;20050;-70
2022/09/13 05:43:43;;;;;;;139.48;128.65;;;;;;;;;;10162773;28;20045;-70
2022/09/13 05:48:40;;;;;;;135.20;124.30;;;;;;;;;;10196251;28;20049;-70
2022/09/13 05:53:40;;;;;;;136.20;125.38;;;;;;;;;;10195123;28;20049;-70
2022/09/13 05:58:40;;;;;;;136.90;125.93;;;;;;;;;;10172909;28;20046;-70
2022/09/13 06:03:36;;;;;;;138.35;127.43;;;;;;;;;;10161289;28;20415;-71
2022/09/13 06:08:33;;;;;;;136.27;125.47;;;;;;;;;;10195655;28;20045;-71
2022/09/13 06:13:30;;;;;;;136.80;125.82;;;;;;;;;;10195605;28;20056;-71
2022/09/13 06:18:26;;;;;;;140.50;129.35;;;;;;;;;;10195643;28;20056;-71
2022/09/13 06:23:22;;;;;;;139.82;128.95;;;;;;;;;;10181209;28;20519;-70
2022/09/13 06:28:18;;;;;;;145.48;134.55;;;;;;;;;;10194132;28;20042;-71
2022/09/13 06:33:16;;;;;;;148.98;137.70;;;;;;;;;;10176616;28;20105;-71
2022/09/13 06:38:13;;;;;;;133.85;123.60;;;;;;;;;;10195291;28;20504;-71
2022/09/13 06:43:10;;;;;;;130.13;120.05;;;;;;;;;;10166059;28;20046;-71
2022/09/13 06:48:06;;;;;;;128.23;118.47;;;;;;;;;;10188038;28;20451;-71
2022/09/13 06:53:02;;;;;;;131.07;120.65;;;;;;;;;;10155218;28;20428;-71
2022/09/13 06:57:59;;;;;;;137.77;127.22;;;;;;;;;;10193876;28;20522;-71
2022/09/13 07:02:55;;;;;;;146.80;136.10;;;;;;;;;;10193783;28;20042;-70
2022/09/13 07:07:51;;;;;;;144.63;134.05;;;;;;;;;;10155930;28;20043;-70
2022/09/13 07:12:47;;;;;;;147.60;136.82;;;;;;;;;;10155910;28;20050;-69
2022/09/13 07:17:43;;;;;;;147.93;137.40;;;;;;;;;;10193780;28;20046;-70
2022/09/13 07:22:40;;;;;;;155.05;144.13;;;;;;;;;;10193612;28;20515;-70
2022/09/13 07:27:36;;;;;;;150.98;139.95;;;;;;;;;;10193211;28;20125;-70
2022/09/13 07:32:32;;;;;;;149.65;139.35;;;;;;;;;;10177864;28;20057;-70
2022/09/13 07:37:28;;;;;;;150.13;139.85;;;;;;;;;;10189053;28;20060;-70
2022/09/13 07:42:25;;;;;;;147.43;137.18;;;;;;;;;;10192876;28;20060;-70
2022/09/13 07:47:21;;;;;;;150.38;140.75;;;;;;;;;;10193259;28;20424;-70
2022/09/13 07:52:18;;;;;;;149.75;139.75;;;;;;;;;;10164111;28;20509;-70
2022/09/13 07:57:14;;;;;;;149.18;139.88;;;;;;;;;;10186908;28;20046;-69
2022/09/13 08:02:10;;;;;;;140.55;131.55;;;;;;;;;;10193169;28;20423;-69
2022/09/13 08:07:06;;;;;;;145.00;136.00;;;;;;;;;;10192376;28;20046;-69
2022/09/13 08:12:03;;;;;;;132.02;123.93;;;;;;;;;;10192723;28;20137;-69
2022/09/13 08:17:00;;;;;;;129.27;120.82;;;;;;;;;;10181252;28;20069;-69
2022/09/13 08:21:56;;;;;;;119.90;112.70;;;;;;;;;;10160550;28;20070;-69
2022/09/13 08:26:53;;;;;;;113.13;106.68;;;;;;;;;;10170171;28;20048;-69
2022/09/13 08:31:50;;;;;;;82.55;77.65;;;;;;;;;;10160621;28;20118;-69
2022/09/13 08:36:47;;;;;;;73.55;69.10;;;;;;;;;;10199670;28;20416;-69
2022/09/13 08:42:09;;;;;;;44.33;41.42;;;;;;;;;;10195009;28;20039;-69
2022/09/13 08:47:25;;;;;;;42.35;39.40;;;;;;;;;;10205774;28;20048;-70
2022/09/13 08:52:30;;;;;;;37.13;34.85;;;;;;;;;;10172192;28;20046;-69
2022/09/13 08:57:26;;;;;;;31.88;29.58;;;;;;;;;;10194231;28;20061;-69
2022/09/13 09:02:22;;;;;;;25.20;23.40;;;;;;;;;;10198790;28;20050;-69
2022/09/13 09:07:34;;;;;;;24.73;22.77;;;;;;;;;;10192151;28;20497;-69
2022/09/13 09:12:38;;;;;;;22.80;20.90;;;;;;;;;;10159107;28;20050;-70
2022/09/13 09:17:46;;;;;;;18.55;15.80;;;;;;;;;;10194517;28;20065;-69
2022/09/13 09:22:44;;;;;;;27.50;25.13;;;;;;;;;;10198466;28;20422;-70
2022/09/13 09:27:40;;;;;;;13.98;12.77;;;;;;;;;;10178404;28;20077;-69
2022/09/13 09:32:46;;;;;;;11.88;10.77;;;;;;;;;;10158025;28;20047;-69
2022/09/13 09:37:44;;;;;;;13.00;11.65;;;;;;;;;;10194382;28;20515;-69
2022/09/13 09:42:46;;;;;;;11.80;10.48;;;;;;;;;;10197554;28;20056;-69
2022/09/13 09:47:44;;;;;;;11.57;10.63;;;;;;;;;;10196856;28;20569;-70
2022/09/13 09:52:54;;;;;;;15.20;10.85;;;;;;;;;;10197394;28;20058;-69
2022/09/13 09:57:52;;;;;;;11.70;10.52;;;;;;;;;;10166846;28;20054;-70
2022/09/13 10:02:51;;;;;;;10.52;9.23;;;;;;;;;;10156977;28;20050;-69
2022/09/13 10:07:56;;;;;;;11.27;10.35;;;;;;;;;;10195939;28;20057;-69
2022/09/13 10:12:54;;;;;;;11.10;10.10;;;;;;;;;;10195686;28;20422;-70
2022/09/13 10:18:04;;;;;;;17.52;10.77;;;;;;;;;;10195926;28;20073;-69
2022/09/13 10:23:18;;;;;;;11.45;10.25;;;;;;;;;;10195622;28;20057;-69
2022/09/13 10:28:17;;;;;;;10.48;9.55;;;;;;;;;;10195670;28;20053;-70
2022/09/13 10:33:22;;;;;;;9.90;9.00;;;;;;;;;;10162268;28;20054;-70
2022/09/13 10:38:23;;;;;;;9.73;8.88;;;;;;;;;;10194559;28;20049;-69
2022/09/13 10:43:20;;;;;;;9.45;8.57;;;;;;;;;;10195136;28;20049;-70
2022/09/13 10:48:18;;;;;;;9.77;8.77;;;;;;;;;;10183638;28;20053;-70
2022/09/13 10:53:38;;;;;;;9.35;8.52;;;;;;;;;;10156231;28;20098;-69
2022/09/13 10:58:34;;;;;;;9.43;8.52;;;;;;;;;;10169920;28;20057;-69
2022/09/13 11:03:51;;;;;;;9.65;8.48;;;;;;;;;;10158286;28;20056;-70
2022/09/13 11:08:59;;;;;;;10.50;9.43;;;;;;;;;;10164522;28;20050;-69
2022/09/13 11:14:05;;;;;;;11.50;8.80;;;;;;;;;;10160742;28;20063;-70
2022/09/13 11:19:14;;;;;;;11.15;10.13;;;;;;;;;;10193689;28;20042;-69
2022/09/13 11:24:28;;;;;;;11.35;9.10;;;;;;;;;;10189315;28;20618;-69
2022/09/13 11:29:43;;;;;;;10.05;9.15;;;;;;;;;;10193103;28;20580;-70
2022/09/13 11:34:58;;;;;;;9.98;9.00;;;;;;;;;;10193080;28;20041;-70
2022/09/13 11:40:01;;;;;;;9.35;8.43;;;;;;;;;;10193033;28;20562;-69
2022/09/13 11:44:57;;;;;;;11.63;8.63;;;;;;;;;;10193829;28;20085;-70
2022/09/13 11:50:09;;;;;;;9.90;8.50;;;;;;;;;;10192006;28;20496;-69
2022/09/13 11:55:15;;;;;;;9.85;8.80;;;;;;;;;;10192839;28;20416;-69
2022/09/13 12:00:18;;;;;;;9.25;8.35;;;;;;;;;;10192478;28;20050;-70
2022/09/13 12:05:20;;;;;;;10.52;9.40;;;;;;;;;;10192619;28;20060;-69
2022/09/13 12:10:25;;;;;;;12.43;8.85;;;;;;;;;;10192197;28;20627;-69
2022/09/13 12:15:21;;;;;;;;;;;;;;;;;;10191917;28;20045;-69
2022/09/13 12:20:32;;;;;;;10.50;9.43;;;;;;;;;;10193074;28;19928;-69
2022/09/13 12:25:52;;;;;;;12.07;9.52;;;;;;;;;;10192206;28;20048;-69
2022/09/13 12:30:51;;;;;;;9.55;8.57;;;;;;;;;;10190577;28;20049;-69
2022/09/13 12:35:47;;;;;;;9.68;8.77;;;;;;;;;;10179500;28;20135;-69
2022/09/13 12:40:44;;;;;;;14.32;8.65;;;;;;;;;;10192336;28;20045;-69
2022/09/13 12:45:43;;;;;;;9.65;8.13;;;;;;;;;;10179398;28;20041;-69
2022/09/13 12:50:42;;;;;;;9.02;8.13;;;;;;;;;;10191484;28;20129;-68
2022/09/13 12:55:58;;;;;;;11.05;8.35;;;;;;;;;;10192057;28;20050;-68
2022/09/13 13:01:01;;;;;;;12.95;8.63;;;;;;;;;;10193122;28;20052;-69
2022/09/13 13:06:09;;;;;;;9.85;8.85;;;;;;;;;;10198267;28;20038;-69
2022/09/13 13:11:10;;;;;;;10.30;8.32;;;;;;;;;;10198445;28;20420;-69
2022/09/13 13:16:30;;;;;;;12.55;8.23;;;;;;;;;;10193728;28;20038;-69
2022/09/13 13:21:27;;;;;;;11.02;8.52;;;;;;;;;;10197553;28;20591;-69
2022/09/13 13:26:41;;;;;;;8.88;8.18;;;;;;;;;;10188604;28;20423;-69
2022/09/13 13:31:39;;;;;;;11.88;8.13;;;;;;;;;;10197739;28;20038;-69
2022/09/13 13:36:38;;;;;;;10.45;8.07;;;;;;;;;;10197804;28;20077;-69
2022/09/13 13:41:37;;;;;;;12.18;8.57;;;;;;;;;;10197581;28;20049;-69
2022/09/13 13:46:33;;;;;;;12.43;7.97;;;;;;;;;;10197206;28;20046;-69
2022/09/13 13:51:30;;;;;;;12.15;8.32;;;;;;;;;;10196541;28;20073;-69
2022/09/13 13:56:29;;;;;;;10.10;8.23;;;;;;;;;;10196930;28;20046;-69
2022/09/13 14:01:28;;;;;;;11.35;8.20;;;;;;;;;;10195865;28;20060;-69
2022/09/13 14:06:32;;;;;;;11.13;7.72;;;;;;;;;;10196126;28;20412;-69
2022/09/13 14:11:29;;;;;;;11.02;8.20;;;;;;;;;;10195608;28;20049;-69
2022/09/13 14:16:45;;;;;;;11.05;8.68;;;;;;;;;;10195554;28;20045;-69
2022/09/13 14:21:42;;;;;;;9.88;8.82;;;;;;;;;;10195365;28;20050;-69
2022/09/13 14:26:39;;;;;;;12.77;8.20;;;;;;;;;;10195434;28;20052;-69
2022/09/13 14:31:35;;;;;;;10.48;9.43;;;;;;;;;;10195363;28;20143;-69
2022/09/13 14:36:32;;;;;;;10.80;8.70;;;;;;;;;;10176872;28;20062;-69
2022/09/13 14:41:32;;;;;;;11.48;9.95;;;;;;;;;;10170969;28;20053;-69
2022/09/13 14:46:36;;;;;;;12.60;8.85;;;;;;;;;;10182409;28;20087;-69
2022/09/13 14:51:41;;;;;;;10.40;8.90;;;;;;;;;;10195062;28;20526;-69
2022/09/13 14:56:43;;;;;;;10.65;9.55;;;;;;;;;;10194446;28;20052;-69
2022/09/13 15:01:39;;;;;;;12.37;9.43;;;;;;;;;;10194288;28;20069;-69
2022/09/13 15:06:39;;;;;;;9.35;8.00;;;;;;;;;;10194239;28;20048;-69
2022/09/13 15:11:37;;;;;;;12.63;8.30;;;;;;;;;;10159073;28;20048;-69
2022/09/13 15:16:33;;;;;;;11.02;8.57;;;;;;;;;;10182192;28;20397;-69
2022/09/13 15:21:29;;;;;;;11.23;8.70;;;;;;;;;;10193664;28;20468;-69
2022/09/13 15:26:25;;;;;;;10.52;8.45;;;;;;;;;;10192576;28;20038;-69
2022/09/13 15:31:23;;;;;;;11.32;9.02;;;;;;;;;;10193952;28;20077;-68
2022/09/13 15:36:20;;;;;;;13.80;8.63;;;;;;;;;;10186836;28;20050;-68
2022/09/13 15:41:17;;;;;;;13.05;9.20;;;;;;;;;;10151948;28;20057;-68
2022/09/13 15:46:14;;;;;;;9.38;8.40;;;;;;;;;;10184334;28;20125;-70
2022/09/13 15:51:12;;;;;;;11.27;8.23;;;;;;;;;;10153155;28;20117;-71
2022/09/13 15:56:11;;;;;;;10.98;9.50;;;;;;;;;;10166701;28;20504;-71
2022/09/13 16:01:09;;;;;;;9.57;8.57;;;;;;;;;;10168465;28;20061;-70
2022/09/13 16:06:08;;;;;;;10.98;8.63;;;;;;;;;;10176524;28;20050;-71
2022/09/13 16:11:04;;;;;;;8.40;7.60;;;;;;;;;;10193041;28;20049;-70
2022/09/13 16:16:01;;;;;;;11.30;8.70;;;;;;;;;;10191915;28;20277;-71
2022/09/13 16:20:57;;;;;;;11.77;8.02;;;;;;;;;;10193018;28;20049;-70
2022/09/13 16:25:55;;;;;;;9.38;7.88;;;;;;;;;;10188374;28;20038;-70
2022/09/13 16:30:51;;;;;;;10.38;8.50;;;;;;;;;;10192005;28;20061;-70
2022/09/13 16:35:48;;;;;;;7.82;7.00;;;;;;;;;;10195548;28;20049;-70
2022/09/13 16:40:44;;;;;;;10.68;8.25;;;;;;;;;;10199489;28;20057;-70
2022/09/13 16:45:40;;;;;;;11.30;8.00;;;;;;;;;;10199598;28;20050;-69
2022/09/13 16:50:39;;;;;;;9.20;8.18;;;;;;;;;;10198809;28;20661;-70
2022/09/13 16:55:36;;;;;;;11.90;9.27;;;;;;;;;;10198840;28;20050;-70
2022/09/13 17:00:32;;;;;;;8.20;7.40;;;;;;;;;;10198780;28;20438;-69
2022/09/13 17:05:28;;;;;;;9.77;7.57;;;;;;;;;;10187220;28;20523;-70
2022/09/13 17:10:25;;;;;;;7.78;7.00;;;;;;;;;;10158280;28;20054;-70
2022/09/13 17:15:21;;;;;;;7.53;6.90;;;;;;;;;;10176949;28;20060;-70
2022/09/13 17:20:17;;;;;;;8.07;6.80;;;;;;;;;;10198356;28;20046;-70
2022/09/13 17:25:14;;;;;;;9.07;7.40;;;;;;;;;;10197416;28;20046;-70
2022/09/13 17:30:11;;;;;;;10.82;8.85;;;;;;;;;;10198123;28;20057;-70
2022/09/13 17:35:09;;;;;;;11.52;7.43;;;;;;;;;;10196441;28;20287;-70
2022/09/13 17:40:06;;;;;;;11.77;8.48;;;;;;;;;;10197625;28;20092;-70
2022/09/13 17:45:02;;;;;;;8.52;7.75;;;;;;;;;;10176093;28;20115;-70
2022/09/13 17:49:59;;;;;;;9.95;7.50;;;;;;;;;;10196852;28;20056;-70
2022/09/13 17:54:55;;;;;;;10.60;8.25;;;;;;;;;;10171790;28;20080;-70
2022/09/13 17:59:52;;;;;;;8.65;7.90;;;;;;;;;;10194766;28;20046;-70
2022/09/13 18:04:49;;;;;;;9.27;7.80;;;;;;;;;;10170432;28;20052;-70
2022/09/13 18:09:46;;;;;;;10.75;8.52;;;;;;;;;;10195269;28;20450;-70
2022/09/13 18:14:42;;;;;;;8.10;7.40;;;;;;;;;;10194609;28;20053;-70
2022/09/13 18:19:39;;;;;;;11.40;8.20;;;;;;;;;;10195309;28;20050;-69
2022/09/13 18:24:42;;;;;;;8.52;7.70;;;;;;;;;;10195747;28;20108;-69
2022/09/13 18:29:39;;;;;;;8.75;8.02;;;;;;;;;;10194923;28;20041;-70
2022/09/13 18:34:35;;;;;;;10.70;8.13;;;;;;;;;;10194978;28;20081;-69
2022/09/13 18:39:31;;;;;;;8.90;8.05;;;;;;;;;;10194963;28;20052;-70
2022/09/13 18:44:29;;;;;;;9.82;7.95;;;;;;;;;;10194492;28;20503;-70
2022/09/13 18:49:25;;;;;;;8.52;7.68;;;;;;;;;;10194484;28;20466;-70
2022/09/13 18:54:21;;;;;;;12.82;8.90;;;;;;;;;;10194453;28;20053;-69
2022/09/13 18:59:17;;;;;;;8.98;7.50;;;;;;;;;;10193665;28;20052;-70
2022/09/13 19:04:15;;;;;;;8.07;7.28;;;;;;;;;;10194765;28;20057;-70
2022/09/13 19:09:13;;;;;;;9.43;7.80;;;;;;;;;;10193219;28;20129;-70
2022/09/13 19:14:11;;;;;;;11.23;7.95;;;;;;;;;;10192604;28;20074;-70
2022/09/13 19:19:08;;;;;;;7.88;7.18;;;;;;;;;;10193066;28;20073;-70
2022/09/13 19:24:04;;;;;;;8.23;7.22;;;;;;;;;;10193469;28;20052;-70
2022/09/13 19:29:10;;;;;;;8.43;7.28;;;;;;;;;;10192632;28;20427;-70
2022/09/13 19:34:07;;;;;;;9.40;7.47;;;;;;;;;;10192744;28;20064;-70
2022/09/13 19:39:04;;;;;;;7.82;7.13;;;;;;;;;;10192937;28;20057;-70
2022/09/13 19:44:00;;;;;;;9.52;7.57;;;;;;;;;;10192971;28;20046;-70
2022/09/13 19:48:58;;;;;;;13.75;8.00;;;;;;;;;;10192829;28;20049;-70
2022/09/13 19:53:55;;;;;;;7.95;7.25;;;;;;;;;;10180350;28;20038;-71
2022/09/13 19:58:53;;;;;;;8.57;7.63;;;;;;;;;;10192797;28;20716;-69
2022/09/13 20:03:59;;;;;;;9.65;7.22;;;;;;;;;;10192164;28;20054;-69
2022/09/13 20:08:57;;;;;;;8.18;7.38;;;;;;;;;;10192484;28;20050;-69
2022/09/13 20:13:54;;;;;;;10.05;7.00;;;;;;;;;;10200057;28;20518;-69
2022/09/13 20:18:51;;;;;;;7.55;6.80;;;;;;;;;;10200106;28;20038;-69
2022/09/13 20:23:47;;;;;;;8.38;7.13;;;;;;;;;;10200365;28;20046;-69
2022/09/13 20:28:44;;;;;;;7.60;6.63;;;;;;;;;;10199704;28;20060;-69
2022/09/13 20:33:41;;;;;;;8.30;6.95;;;;;;;;;;10199969;28;20081;-69
2022/09/13 20:38:38;;;;;;;9.73;6.80;;;;;;;;;;10189990;28;20042;-69
2022/09/13 20:43:36;;;;;;;8.45;7.22;;;;;;;;;;10162708;28;20046;-68
2022/09/13 20:48:33;;;;;;;10.38;7.95;;;;;;;;;;10198842;28;20054;-68
2022/09/13 20:53:29;;;;;;;7.57;6.88;;;;;;;;;;10199146;28;20389;-69
2022/09/13 20:58:26;;;;;;;9.38;7.55;;;;;;;;;;10164699;28;20042;-69
2022/09/13 21:03:22;;;;;;;9.45;8.02;;;;;;;;;;10161554;28;20055;-69
2022/09/13 21:13:42;;;;;;;10.32;8.10;;;;;;;;;;10194666;28;20508;-69
2022/09/13 21:18:38;;;;;;;9.85;8.95;;;;;;;;;;10158133;28;20065;-69
2022/09/13 21:23:38;;;;;;;19.05;11.15;;;;;;;;;;10163694;28;20447;-69
2022/09/13 21:28:35;;;;;;;11.40;10.05;;;;;;;;;;10197986;28;20530;-70
2022/09/13 21:33:31;;;;;;;13.57;12.48;;;;;;;;;;10187430;28;20065;-71
2022/09/13 21:38:29;;;;;;;14.20;12.95;;;;;;;;;;10197267;28;20456;-71
2022/09/13 21:43:26;;;;;;;15.07;13.38;;;;;;;;;;10197036;28;20523;-71
2022/09/13 21:48:22;;;;;;;14.70;13.25;;;;;;;;;;10196823;28;20054;-71
2022/09/13 21:53:19;;;;;;;13.48;12.32;;;;;;;;;;10168036;28;20123;-70
2022/09/13 21:58:15;;;;;;;15.90;14.43;;;;;;;;;;10193022;28;20049;-73
2022/09/13 22:03:11;;;;;;;15.15;13.77;;;;;;;;;;10158097;28;20122;-72
2022/09/13 22:08:07;;;;;;;14.20;12.93;;;;;;;;;;10177435;28;20058;-71
2022/09/13 22:13:04;;;;;;;13.93;12.57;;;;;;;;;;10156835;28;20071;-71
2022/09/13 22:18:00;;;;;;;13.85;12.65;;;;;;;;;;10156767;28;20071;-72
2022/09/13 22:22:56;;;;;;;15.02;13.85;;;;;;;;;;10155997;28;20321;-72
2022/09/13 22:27:53;;;;;;;14.15;12.93;;;;;;;;;;10164787;28;20051;-72
2022/09/13 22:32:49;;;;;;;15.40;14.07;;;;;;;;;;10155394;28;20050;-71
2022/09/13 22:37:45;;;;;;;16.88;15.15;;;;;;;;;;10195222;28;20125;-72
2022/09/13 22:42:41;;;;;;;17.98;16.58;;;;;;;;;;10195111;28;20042;-72
2022/09/13 22:47:37;;;;;;;18.42;16.92;;;;;;;;;;10195061;28;20058;-72
2022/09/13 22:52:34;;;;;;;19.48;17.98;;;;;;;;;;10190662;28;20065;-71
2022/09/13 22:57:30;;;;;;;21.52;19.83;;;;;;;;;;10190855;28;20523;-72
2022/09/13 23:02:26;;;;;;;23.00;21.30;;;;;;;;;;10184033;28;20054;-72
2022/09/13 23:07:22;;;;;;;27.08;25.33;;;;;;;;;;10189140;28;20733;-73
2022/09/13 23:12:18;;;;;;;26.80;24.90;;;;;;;;;;10194144;28;20069;-71
2022/09/13 23:17:15;;;;;;;29.42;27.40;;;;;;;;;;10193826;28;20046;-72
2022/09/13 23:22:11;;;;;;;30.42;28.33;;;;;;;;;;10193987;28;20046;-72
2022/09/13 23:27:07;;;;;;;35.03;32.67;;;;;;;;;;10193542;28;20056;-71
2022/09/13 23:32:04;;;;;;;37.97;35.20;;;;;;;;;;10193525;28;20050;-72
2022/09/13 23:37:00;;;;;;;38.90;36.13;;;;;;;;;;10193468;28;20046;-73
2022/09/13 23:41:56;;;;;;;40.30;37.83;;;;;;;;;;10165914;28;20416;-72
2022/09/13 23:46:52;;;;;;;44.53;41.85;;;;;;;;;;10183229;28;20052;-72
2022/09/13 23:51:49;;;;;;;44.67;41.97;;;;;;;;;;10158176;28;20058;-72
2022/09/13 23:56:45;;;;;;;50.92;47.78;;;;;;;;;;10188027;28;20042;-72
